Tangier, Canada
Current Conditions -  °F | °C
As of 4:00 AM on Saturday 20 Dec 2014 (Local Time) from CYHZ Reporting Station
Broken Clouds Broken Clouds  
Wind Chill: 19°   Ceiling: 3000
Heat Index: 28°   Visibility: 15mi
Dew Point: 25°   Wind: 10mph
Humidity: 86%   Direction: 340°NNW
Pressure: 30.04"   Gusts: 17mph
Location:  44.8°N, 62.7°W
Report Text: CYHZ 200800Z 34009G15KT 15SM BKN030 M02/M04 A3004 RMK SC7 SLP178
Loading
Personal Weather Stations






























Interactive Weather Map New forecast layout! Learn more

10-Day Weather Forecast

Advertisements
Track Severe Weather on mobile